Time;durP1;ratioP1;P1;durP2;ratioP2;P2;SDS_P1;SDS_P2;PMS_P1;PMS_P2;Temp;Humidity;BMP_temperature;BMP_pressure;BME280_temperature;BME280_humidity;BME280_pressure;Samples;Min_cycle;Max_cycle;Signal;HPM_P1;HPM_P2
2022/12/23 00:00:39;;;;;;;;;;;;;;;5.87;49.85;98748.19;5035109;28;19924;-75
2022/12/23 00:03:04;;;;;;;;;;;;;;;5.86;50.44;98749.09;5035166;28;20490;-75
2022/12/23 00:05:29;;;;;;;;;;;;;;;5.85;50.58;98742.25;5053153;28;19924;-75
2022/12/23 00:07:55;;;;;;;;;;;;;;;5.85;50.22;98744.84;5018544;28;19924;-77
2022/12/23 00:10:20;;;;;;;;;;;;;;;5.83;50.24;98744.09;5052778;28;20358;-75
2022/12/23 00:15:29;;;;;;;;;;;;;;;5.83;50.31;98742.34;5037640;28;19951;-75
2022/12/23 00:17:55;;;;;;;;;;;;;;;5.82;50.25;98738.09;5018371;28;19917;-75
2022/12/23 00:20:20;;;;;;;;;;;;;;;5.81;49.90;98739.00;5034784;28;19916;-75
2022/12/23 00:23:03;;;;;;;;;;;;;;;5.83;49.80;98744.09;5035272;28;20366;-75
2022/12/23 00:25:40;;;;;;;;;;;;;;;5.83;49.77;98744.09;5053270;28;19917;-75
2022/12/23 00:28:10;;;;;;;;;;;;;;;5.82;49.73;98739.81;5036826;28;20014;-75
2022/12/23 00:30:42;;;;;;;;;;;;;;;5.80;50.35;98740.78;5052895;28;19960;-75
2022/12/23 00:33:07;;;;;;;;;;;;;;;5.80;50.38;98745.09;5018749;28;20315;-75
2022/12/23 00:35:33;;;;;;;;;;;;;;;5.79;49.86;98746.88;5034533;28;20418;-74
2022/12/23 00:37:58;;;;;;;;;;;;;;;5.79;50.48;98743.44;5034154;28;19921;-75
2022/12/23 00:43:07;;;;;;;;;;;;;;;5.77;50.48;98738.34;5052730;28;19931;-75
2022/12/23 00:45:33;;;;;;;;;;;;;;;5.76;50.32;98736.66;5018071;28;20003;-75
2022/12/23 00:50:42;;;;;;;;;;;;;;;5.75;50.30;98736.75;5052338;28;19955;-74
2022/12/23 00:53:07;;;;;;;;;;;;;;;5.75;50.21;98736.75;5052891;28;19968;-76
2022/12/23 00:55:32;;;;;;;;;;;;;;;5.75;50.18;98726.41;5052861;28;20375;-75
2022/12/23 00:57:58;;;;;;;;;;;;;;;5.75;50.31;98731.56;5018037;28;20439;-75
2022/12/23 01:05:35;;;;;;;;;;;;;;;5.73;50.38;98726.47;5034871;28;19923;-76
2022/12/23 01:05:58;;;;;;;;;;;;;;;5.71;50.43;98719.72;5037369;28;19975;-75
2022/12/23 01:08:24;;;;;;;;;;;;;;;5.69;50.20;98716.38;5017770;28;20429;-75
2022/12/23 01:10:49;;;;;;;;;;;;;;;5.68;50.43;98718.16;5052099;28;19917;-75
2022/12/23 01:13:14;;;;;;;;;;;;;;;5.68;50.10;98712.13;5052131;28;19921;-76
2022/12/23 01:15:40;;;;;;;;;;;;;;;5.66;50.02;98713.97;5034160;28;19917;-75
2022/12/23 01:18:05;;;;;;;;;;;;;;;5.65;50.31;98713.13;5034698;28;20453;-75
2022/12/23 01:20:30;;;;;;;;;;;;;;;5.64;50.42;98713.22;5034287;28;20391;-75
2022/12/23 01:22:56;;;;;;;;;;;;;;;5.65;50.55;98713.13;5034369;28;20019;-75
2022/12/23 01:25:21;;;;;;;;;;;;;;;5.62;50.17;98703.78;5017513;28;19967;-75
2022/12/23 01:27:46;;;;;;;;;;;;;;;5.62;50.18;98701.19;5034200;28;19920;-75
2022/12/23 01:30:12;;;;;;;;;;;;;;;5.62;50.05;98695.19;5034001;28;19917;-76
2022/12/23 01:32:37;;;;;;;;;;;;;;;5.61;50.41;98701.28;5036912;28;19924;-76
2022/12/23 01:35:02;;;;;;;;;;;;;;;5.61;50.21;98698.69;5037421;28;19939;-76
2022/12/23 01:37:28;;;;;;;;;;;;;;;5.60;50.51;98700.44;5021059;28;19927;-77
2022/12/23 01:39:53;;;;;;;;;;;;;;;5.59;50.32;98696.19;5037406;28;19917;-75
2022/12/23 01:45:09;;;;;;;;;;;;;;;5.57;50.74;98695.44;5040557;28;19971;-76
2022/12/23 01:47:34;;;;;;;;;;;;;;;5.56;50.66;98693.75;5055416;28;19924;-76
2022/12/23 01:50:05;;;;;;;;;;;;;;;5.55;50.68;98688.66;5055185;28;19920;-76
2022/12/23 01:52:30;;;;;;;;;;;;;;;5.55;50.69;98686.06;5021268;28;19978;-76
2022/12/23 01:54:56;;;;;;;;;;;;;;;5.53;50.40;98688.75;5037545;28;19921;-76
2022/12/23 01:57:21;;;;;;;;;;;;;;;5.53;50.63;98677.56;5037942;28;20013;-76
2022/12/23 02:05:15;;;;;;;;;;;;;;;5.49;50.76;98683.81;5039908;28;19939;-75
2022/12/23 02:10:25;;;;;;;;;;;;;;;5.46;50.43;98681.44;5040528;28;19975;-75
2022/12/23 02:12:50;;;;;;;;;;;;;;;5.45;50.57;98665.06;5037124;28;19921;-75
2022/12/23 02:18:23;;;;;;;;;;;;;;;5.44;50.52;98678.94;5054845;28;20342;-74
2022/12/23 02:21:07;;;;;;;;;;;;;;;5.41;50.78;98677.34;5037382;28;20306;-74
2022/12/23 02:23:32;;;;;;;;;;;;;;;5.42;50.68;98678.16;5054961;28;20011;-71
2022/12/23 02:25:57;;;;;;;;;;;;;;;5.41;50.79;98676.53;5054122;28;20039;-74
2022/12/23 02:28:28;;;;;;;;;;;;;;;5.40;50.92;98672.25;5054637;28;20019;-75
2022/12/23 02:31:00;;;;;;;;;;;;;;;5.38;50.94;98668.91;5054671;28;19917;-74
2022/12/23 02:33:34;;;;;;;;;;;;;;;5.39;50.50;98667.97;5036712;28;19967;-75
2022/12/23 02:36:08;;;;;;;;;;;;;;;5.39;50.89;98670.56;5020266;28;19923;-76
2022/12/23 02:38:40;;;;;;;;;;;;;;;5.36;50.89;98666.41;5036062;28;20000;-73
2022/12/23 02:41:05;;;;;;;;;;;;;;;5.36;50.38;98671.59;5036658;28;19975;-75
2022/12/23 02:43:30;;;;;;;;;;;;;;;5.35;50.52;98675.09;5036248;28;19916;-75
2022/12/23 02:46:14;;;;;;;;;;;;;;;5.35;50.93;98671.69;5054310;28;19917;-75
2022/12/23 02:49:00;;;;;;;;;;;;;;;5.33;50.75;98671.78;5054353;28;19917;-75
2022/12/23 02:51:30;;;;;;;;;;;;;;;5.32;50.91;98672.69;5053726;28;19959;-76
2022/12/23 02:53:55;;;;;;;;;;;;;;;5.32;51.00;98666.69;5036500;28;20011;-75
2022/12/23 02:56:21;;;;;;;;;;;;;;;5.31;50.89;98671.00;5036328;28;20007;-75
2022/12/23 02:58:52;;;;;;;;;;;;;;;5.31;50.63;98667.59;5036486;28;19947;-74
2022/12/23 03:01:17;;;;;;;;;;;;;;;5.30;50.98;98665.91;5036782;28;19939;-74
2022/12/23 03:03:43;;;;;;;;;;;;;;;5.29;51.29;98666.84;5019402;28;20395;-75
2022/12/23 03:06:34;;;;;;;;;;;;;;;5.28;51.07;98672.94;5019579;28;19982;-75
2022/12/23 03:09:00;;;;;;;;;;;;;;;5.25;51.19;98664.44;5050818;28;20355;-74
2022/12/23 03:11:38;;;;;;;;;;;;;;;5.25;50.70;98667.00;5036486;28;19917;-75
2022/12/23 03:14:04;;;;;;;;;;;;;;;5.24;51.00;98661.91;5037627;28;20015;-74
2022/12/23 03:16:29;;;;;;;;;;;;;;;5.23;51.06;98661.09;5053805;28;20392;-74
2022/12/23 03:19:00;;;;;;;;;;;;;;;5.23;50.77;98665.41;5053616;28;19920;-74
2022/12/23 03:21:44;;;;;;;;;;;;;;;5.22;51.01;98664.59;5053734;28;19924;-75
2022/12/23 03:24:12;;;;;;;;;;;;;;;5.21;51.11;98664.69;5053791;28;19975;-75
2022/12/23 03:26:37;;;;;;;;;;;;;;;5.20;50.99;98663.00;5035593;28;19987;-74
2022/12/23 03:29:13;;;;;;;;;;;;;;;5.19;51.24;98664.75;5053418;28;20366;-74
2022/12/23 03:31:39;;;;;;;;;;;;;;;5.19;50.91;98659.59;5019319;28;19963;-75
2022/12/23 03:34:08;;;;;;;;;;;;;;;5.18;50.96;98652.72;5035669;28;19970;-75
2022/12/23 03:36:35;;;;;;;;;;;;;;;5.16;51.45;98657.16;5018854;28;19928;-76
2022/12/23 03:39:01;;;;;;;;;;;;;;;5.17;51.03;98652.81;5035382;28;19917;-75
2022/12/23 03:41:28;;;;;;;;;;;;;;;5.15;50.89;98645.13;5035532;28;20406;-75
2022/12/23 03:43:58;;;;;;;;;;;;;;;5.15;51.23;98642.53;5053733;28;19967;-74
2022/12/23 03:46:29;;;;;;;;;;;;;;;5.14;51.01;98642.63;5035138;28;19917;-74
2022/12/23 03:48:59;;;;;;;;;;;;;;;5.15;51.44;98644.31;5035429;28;19947;-73
2022/12/23 03:51:27;;;;;;;;;;;;;;;5.13;50.94;98646.97;5035301;28;19921;-73
2022/12/23 03:54:12;;;;;;;;;;;;;;;5.14;51.15;98647.81;5034962;28;20370;-73
2022/12/23 03:56:39;;;;;;;;;;;;;;;5.13;51.18;98649.56;5034835;28;19917;-73
2022/12/23 03:59:10;;;;;;;;;;;;;;;5.13;51.00;98641.81;5018852;28;19967;-74
2022/12/23 04:01:41;;;;;;;;;;;;;;;5.12;51.00;98647.91;5035006;28;20011;-74
2022/12/23 04:04:13;;;;;;;;;;;;;;;5.12;51.21;98640.13;5034998;28;19917;-74
2022/12/23 04:06:55;;;;;;;;;;;;;;;5.12;51.08;98639.31;5035512;28;20370;-73
2022/12/23 04:09:21;;;;;;;;;;;;;;;5.13;51.31;98643.56;5035660;28;19916;-73
2022/12/23 04:11:46;;;;;;;;;;;;;;;5.13;51.34;98646.16;5018488;28;19924;-73
2022/12/23 04:14:15;;;;;;;;;;;;;;;5.13;51.62;98664.28;5052610;28;19921;-74
2022/12/23 04:16:40;;;;;;;;;;;;;;;5.13;51.47;98661.69;5018495;28;20446;-73
2022/12/23 04:19:06;;;;;;;;;;;;;;;5.12;51.25;98660.00;5053171;28;20007;-74
2022/12/23 04:21:31;;;;;;;;;;;;;;;5.10;51.47;98662.69;5052960;28;19920;-73
2022/12/23 04:23:56;;;;;;;;;;;;;;;5.12;51.49;98666.00;5053060;28;19923;-74
2022/12/23 04:26:22;;;;;;;;;;;;;;;5.13;51.56;98669.44;5052093;28;20383;-75
2022/12/23 04:28:47;;;;;;;;;;;;;;;5.12;51.35;98660.84;5034785;28;20403;-75
2022/12/23 04:31:12;;;;;;;;;;;;;;;5.12;51.47;98670.34;5034363;28;19921;-75
2022/12/23 04:33:37;;;;;;;;;;;;;;;5.11;51.32;98668.69;5019020;28;19917;-74
2022/12/23 04:36:03;;;;;;;;;;;;;;;5.11;51.14;98668.69;5034923;28;20374;-74
2022/12/23 04:38:28;;;;;;;;;;;;;;;5.12;51.46;98671.19;5034662;28;19925;-77
2022/12/23 04:40:53;;;;;;;;;;;;;;;5.15;54.33;98675.38;5018244;28;19966;-77
2022/12/23 04:43:19;;;;;;;;;;;;;;;5.16;54.17;98675.28;5034810;28;19916;-75
2022/12/23 04:45:48;;;;;;;;;;;;;;;5.22;58.55;98662.00;5017527;28;20394;-73
2022/12/23 04:48:13;;;;;;;;;;;;;;;5.28;56.67;98662.56;5034350;28;20059;-73
2022/12/23 04:50:39;;;;;;;;;;;;;;;5.29;56.58;98661.66;5052214;28;20019;-75
2022/12/23 04:53:04;;;;;;;;;;;;;;;5.29;55.92;98670.25;5034792;28;19928;-75
2022/12/23 04:55:30;;;;;;;;;;;;;;;5.30;55.52;98664.16;5018130;28;19921;-75
2022/12/23 04:57:55;;;;;;;;;;;;;;;5.30;55.19;98656.41;5034333;28;19924;-78
2022/12/23 05:00:21;;;;;;;;;;;;;;;5.30;55.06;98656.41;5052457;28;19917;-84
2022/12/23 05:02:46;;;;;;;;;;;;;;;5.30;54.45;98658.13;5034845;28;19916;-79
2022/12/23 05:05:11;;;;;;;;;;;;;;;5.31;61.88;98641.69;5038403;28;19980;-80
2022/12/23 05:07:36;;;;;;;;;;;;;;;5.55;60.12;98653.28;5033586;28;19992;-81
2022/12/23 05:10:02;;;;;;;;;;;;;;;5.61;59.34;98649.47;5037422;28;19924;-81
2022/12/23 05:12:28;;;;;;;;;;;;;;;5.72;61.77;98651.44;5040669;28;19952;-78
2022/12/23 05:14:54;;;;;;;;;;;;;;;5.71;60.56;98653.22;5056256;28;19924;-78
2022/12/23 05:17:19;;;;;;;;;;;;;;;5.70;59.97;98658.50;5038777;28;20291;-78
2022/12/23 05:19:44;;;;;;;;;;;;;;;5.69;58.75;98657.63;5056765;28;19917;-78
2022/12/23 05:22:09;;;;;;;;;;;;;;;5.67;58.36;98654.31;5056368;28;19939;-79
2022/12/23 05:24:35;;;;;;;;;;;;;;;5.66;57.76;98662.16;5021786;28;19924;-80
2022/12/23 05:27:00;;;;;;;;;;;;;;;5.63;58.05;98663.19;5038598;28;19985;-80
2022/12/23 05:29:25;;;;;;;;;;;;;;;5.62;57.28;98664.94;5038125;28;19917;-79
2022/12/23 05:31:51;;;;;;;;;;;;;;;5.61;57.50;98662.44;5038760;28;19923;-79
2022/12/23 05:34:16;;;;;;;;;;;;;;;5.61;56.69;98672.78;5038036;28;19921;-79
2022/12/23 05:36:41;;;;;;;;;;;;;;;5.62;56.69;98672.69;5021589;28;19966;-84
2022/12/23 05:39:07;;;;;;;;;;;;;;;5.65;55.85;98682.06;5021634;28;20020;-79
2022/12/23 05:41:33;;;;;;;;;;;;;;;5.67;55.92;98675.03;5021428;28;20346;-79
2022/12/23 05:43:58;;;;;;;;;;;;;;;6.49;75.14;98678.88;5037808;28;19916;-79
2022/12/23 05:46:23;;;;;;;;;;;;;;;7.40;75.25;98682.81;5037931;28;20015;-79
2022/12/23 05:48:49;;;;;;;;;;;;;;;7.52;66.46;98687.22;5021232;28;19917;-78
2022/12/23 05:51:14;;;;;;;;;;;;;;;7.43;62.26;98683.47;5055520;28;19921;-79
2022/12/23 05:53:39;;;;;;;;;;;;;;;7.33;60.75;98682.38;5021565;28;19921;-79
2022/12/23 05:56:05;;;;;;;;;;;;;;;7.68;68.66;98692.25;5021250;28;19939;-78
2022/12/23 05:58:30;;;;;;;;;;;;;;;7.83;62.92;98698.22;5021024;28;19921;-79
2022/12/23 06:00:55;;;;;;;;;;;;;;;7.95;60.51;98696.56;5020987;28;19948;-77
2022/12/23 06:03:21;;;;;;;;;;;;;;;7.81;60.52;98701.84;5037028;28;19932;-79
2022/12/23 06:05:49;;;;;;;;;;;;;;;7.69;59.73;98703.50;5037564;28;19924;-78
2022/12/23 06:08:14;;;;;;;;;;;;;;;7.84;59.73;98702.47;5055214;28;19916;-78
2022/12/23 06:10:39;;;;;;;;;;;;;;;8.04;58.62;98705.53;5020653;28;20007;-76
2022/12/23 06:13:04;;;;;;;;;;;;;;;8.20;58.04;98705.34;5037414;28;20295;-77
2022/12/23 06:15:30;;;;;;;;;;;;;;;8.88;55.83;98699.00;5037395;28;20284;-77
2022/12/23 06:17:55;;;;;;;;;;;;;;;9.72;53.51;98702.53;5019764;28;19925;-79
2022/12/23 06:20:20;;;;;;;;;;;;;;;10.55;51.13;98710.34;5021117;28;19975;-76
2022/12/23 06:22:46;;;;;;;;;;;;;;;10.75;49.45;98704.41;5037374;28;20299;-77
2022/12/23 06:25:11;;;;;;;;;;;;;;;10.09;50.16;98706.81;5037316;28;20474;-77
2022/12/23 06:27:36;;;;;;;;;;;;;;;9.76;51.15;98703.97;5054752;28;20369;-79
2022/12/23 06:30:02;;;;;;;;;;;;;;;9.53;51.33;98713.47;5037255;28;19928;-78
2022/12/23 06:32:27;;;;;;;;;;;;;;;9.41;51.20;98719.59;5020475;28;19916;-77
2022/12/23 06:34:52;;;;;;;;;;;;;;;9.55;50.27;98723.78;5020301;28;20028;-78
2022/12/23 06:37:21;;;;;;;;;;;;;;;9.75;49.54;98714.53;5020382;28;20403;-78
2022/12/23 06:39:46;;;;;;;;;;;;;;;9.90;48.73;98717.78;5054668;28;19924;-77
2022/12/23 06:42:12;;;;;;;;;;;;;;;9.67;48.90;98711.66;5020361;28;19921;-78
2022/12/23 06:44:37;;;;;;;;;;;;;;;9.49;49.31;98722.47;5037119;28;19917;-76
2022/12/23 06:47:02;;;;;;;;;;;;;;;9.53;48.82;98710.03;5020212;28;20272;-77
2022/12/23 06:49:28;;;;;;;;;;;;;;;9.37;48.89;98718.13;5037129;28;20347;-76
2022/12/23 06:51:53;;;;;;;;;;;;;;;9.23;49.01;98716.50;5019856;28;19920;-77
2022/12/23 06:54:18;;;;;;;;;;;;;;;9.11;48.92;98717.38;5019465;28;19942;-76
2022/12/23 06:56:44;;;;;;;;;;;;;;;9.01;48.87;98714.56;5019950;28;19924;-77
2022/12/23 06:59:09;;;;;;;;;;;;;;;8.93;48.82;98717.72;5035972;28;19924;-77
2022/12/23 07:01:34;;;;;;;;;;;;;;;8.84;48.97;98714.00;5036806;28;19917;-79
2022/12/23 07:04:00;;;;;;;;;;;;;;;8.78;48.77;98717.03;5019859;28;19917;-79
2022/12/23 07:06:26;;;;;;;;;;;;;;;8.74;49.10;98709.53;5018233;28;19959;-86
2022/12/23 07:08:53;;;;;;;;;;;;;;;8.68;48.73;98711.63;5033186;28;19963;-84
2022/12/23 07:11:18;;;;;;;;;;;;;;;8.65;48.87;98716.19;5055308;28;19951;-83
2022/12/23 07:13:44;;;;;;;;;;;;;;;8.63;48.50;98711.13;5074150;28;20376;-83
2022/12/23 07:16:09;;;;;;;;;;;;;;;8.62;48.48;98700.81;5031708;28;19921;-85
2022/12/23 07:18:35;;;;;;;;;;;;;;;8.63;48.64;98705.06;5037176;28;19999;-82
2022/12/23 07:21:00;;;;;;;;;;;;;;;8.64;48.29;98697.16;5019885;28;19920;-85
2022/12/23 07:23:26;;;;;;;;;;;;;;;8.68;48.23;98701.22;5037109;28;19917;-84
2022/12/23 07:25:52;;;;;;;;;;;;;;;8.71;48.13;98696.72;5036676;28;19921;-83
2022/12/23 07:28:17;;;;;;;;;;;;;;;8.72;47.81;98703.59;5035580;28;19917;-84
2022/12/23 07:30:42;;;;;;;;;;;;;;;8.73;48.31;98707.84;5034926;28;19916;-83
2022/12/23 07:33:07;;;;;;;;;;;;;;;8.76;47.88;98713.69;5019299;28;19924;-85
2022/12/23 07:35:33;;;;;;;;;;;;;;;8.80;47.75;98711.72;5020388;28;19940;-83
2022/12/23 07:37:59;;;;;;;;;;;;;;;8.84;47.38;98714.00;5053775;28;19920;-85
2022/12/23 07:40:27;;;;;;;;;;;;;;;8.88;47.33;98728.44;5019326;28;19924;-82
2022/12/23 07:42:53;;;;;;;;;;;;;;;8.96;47.43;98724.50;5053318;28;19927;-85
2022/12/23 07:45:18;;;;;;;;;;;;;;;9.03;47.35;98717.94;5021897;28;19917;-86
2022/12/23 07:47:44;;;;;;;;;;;;;;;9.08;46.65;98726.25;5019273;28;19986;-85
2022/12/23 07:50:09;;;;;;;;;;;;;;;9.16;46.75;98729.13;5035856;28;19917;-85
2022/12/23 07:52:34;;;;;;;;;;;;;;;9.32;46.01;98720.25;5035679;28;20338;-84
2022/12/23 07:55:00;;;;;;;;;;;;;;;9.52;45.92;98730.06;5053926;28;19920;-86
2022/12/23 07:57:25;;;;;;;;;;;;;;;9.56;45.71;98730.66;5054448;28;20354;-86
2022/12/23 07:59:50;;;;;;;;;;;;;;;9.61;45.52;98731.16;5036209;28;19917;-86
2022/12/23 08:02:17;;;;;;;;;;;;;;;9.75;45.19;98732.75;5036252;28;19920;-86
2022/12/23 08:04:42;;;;;;;;;;;;;;;9.85;44.64;98738.13;5035762;28;19924;-87
2022/12/23 08:07:08;;;;;;;;;;;;;;;10.02;44.15;98736.91;5035784;28;19924;-85
2022/12/23 08:09:33;;;;;;;;;;;;;;;10.15;43.94;98727.19;5053416;28;19916;-84
2022/12/23 08:11:58;;;;;;;;;;;;;;;10.33;43.50;98732.88;5035721;28;19928;-86
2022/12/23 08:14:23;;;;;;;;;;;;;;;10.54;42.84;98732.19;5054482;28;19917;-86
2022/12/23 08:16:50;;;;;;;;;;;;;;;10.97;42.11;98734.09;5073965;28;19974;-86
2022/12/23 08:19:15;;;;;;;;;;;;;;;10.99;42.15;98721.75;5055817;28;19916;-88
2022/12/23 08:21:40;;;;;;;;;;;;;;;11.03;41.77;98729.22;5072988;28;20428;-84
2022/12/23 08:24:06;;;;;;;;;;;;;;;11.03;41.80;98739.66;5072748;28;19999;-86
2022/12/23 08:26:31;;;;;;;;;;;;;;;11.10;41.56;98726.13;5054918;28;20303;-86
2022/12/23 08:28:56;;;;;;;;;;;;;;;11.71;40.60;98725.63;5055100;28;20355;-86
2022/12/23 08:31:23;;;;;;;;;;;;;;;12.03;40.14;98723.00;5039041;28;19920;-86
2022/12/23 08:33:49;;;;;;;;;;;;;;;12.87;39.16;98716.88;5054492;28;19917;-85
2022/12/23 08:36:15;;;;;;;;;;;;;;;13.27;38.72;98708.16;5037869;28;20016;-85
2022/12/23 08:38:40;;;;;;;;;;;;;;;13.49;38.26;98719.41;5054428;28;19962;-86
2022/12/23 08:41:09;;;;;;;;;;;;;;;13.42;37.86;98716.50;5054380;28;19959;-84
2022/12/23 08:43:34;;;;;;;;;;;;;;;14.33;36.61;98710.97;5055568;28;19916;-87
2022/12/23 08:46:00;;;;;;;;;;;;;;;14.92;35.57;98705.53;5073141;28;20029;-84
2022/12/23 08:48:25;;;;;;;;;;;;;;;15.51;34.93;98712.13;5038733;28;19916;-85
2022/12/23 08:50:50;;;;;;;;;;;;;;;15.87;33.78;98693.69;5037832;28;19916;-85
2022/12/23 08:53:15;;;;;;;;;;;;;;;15.87;33.21;98698.16;5052232;28;19924;-86
2022/12/23 08:55:42;;;;;;;;;;;;;;;16.06;32.54;98691.88;5034436;28;19932;-85
2022/12/23 08:58:07;;;;;;;;;;;;;;;16.23;32.18;98698.09;5035161;28;19931;-86
2022/12/23 09:00:33;;;;;;;;;;;;;;;16.35;31.71;98686.34;5017933;28;20375;-86
2022/12/23 09:02:58;;;;;;;;;;;;;;;16.38;31.40;98674.63;5034426;28;19917;-81
2022/12/23 09:05:24;;;;;;;;;;;;;;;16.24;31.34;98670.75;5036511;28;19926;-88
2022/12/23 09:07:49;;;;;;;;;;;;;;;17.31;30.18;98668.63;5022000;28;19917;-90
2022/12/23 09:10:15;;;;;;;;;;;;;;;17.53;29.50;98667.97;5018736;28;19928;-80
2022/12/23 09:12:40;;;;;;;;;;;;;;;18.02;28.66;98669.03;5051620;28;20003;-82
2022/12/23 09:15:06;;;;;;;;;;;;;;;18.11;28.51;98672.50;5017134;28;19960;-76
2022/12/23 09:17:31;;;;;;;;;;;;;;;18.57;27.69;98673.53;5051763;28;20410;-82
2022/12/23 09:19:56;;;;;;;;;;;;;;;19.22;27.27;98668.16;5033808;28;19916;-81
2022/12/23 09:22:22;;;;;;;;;;;;;;;19.65;26.04;98672.00;5034534;28;20379;-82
2022/12/23 09:24:47;;;;;;;;;;;;;;;19.52;26.32;98662.00;5033463;28;20065;-83
2022/12/23 09:27:12;;;;;;;;;;;;;;;19.00;26.53;98662.66;5033795;28;19928;-81
2022/12/23 09:29:38;;;;;;;;;;;;;;;19.68;25.93;98658.41;5052523;28;20375;-83
2022/12/23 09:32:03;;;;;;;;;;;;;;;20.09;25.31;98654.63;5051831;28;19921;-82
2022/12/23 09:34:28;;;;;;;;;;;;;;;20.61;25.03;98656.38;5018118;28;19967;-88
2022/12/23 09:36:54;;;;;;;;;;;;;;;21.17;24.06;98654.22;5017620;28;19928;-86
2022/12/23 09:39:19;;;;;;;;;;;;;;;21.83;23.10;98638.97;5035264;28;19917;-87
2022/12/23 09:42:00;;;;;;;;;;;;;;;22.64;21.77;98640.31;5035397;28;20364;-89
2022/12/23 09:44:48;;;;;;;;;;;;;;;23.74;20.80;98636.75;5036570;28;19967;-88
2022/12/23 09:47:15;;;;;;;;;;;;;;;24.69;19.35;98631.91;4992088;28;20102;-86
2022/12/23 09:49:43;;;;;;;;;;;;;;;25.85;18.11;98626.50;4958326;28;19961;-87
2022/12/23 09:52:09;;;;;;;;;;;;;;;26.58;17.41;98626.84;4975136;28;20061;-86
2022/12/23 09:54:40;;;;;;;;;;;;;;;27.14;16.87;98635.66;4978213;28;19965;-86
2022/12/23 09:57:22;;;;;;;;;;;;;;;27.83;15.96;98629.91;4977307;28;19940;-85
2022/12/23 09:59:49;;;;;;;;;;;;;;;28.18;15.55;98629.09;4993889;28;19917;-85
2022/12/23 10:02:17;;;;;;;;;;;;;;;28.62;15.01;98627.69;4994650;28;19925;-84
2022/12/23 10:04:53;;;;;;;;;;;;;;;28.91;14.77;98630.41;4980846;28;20000;-85
2022/12/23 10:07:21;;;;;;;;;;;;;;;29.65;14.35;98621.53;5013013;28;19925;-86
2022/12/23 10:09:47;;;;;;;;;;;;;;;29.81;14.28;98617.22;4997764;28;19917;-85
2022/12/23 10:12:31;;;;;;;;;;;;;;;29.87;13.91;98615.41;4997371;28;19921;-85
2022/12/23 10:14:57;;;;;;;;;;;;;;;30.04;14.04;98610.00;5015948;28;20032;-87
2022/12/23 10:17:40;;;;;;;;;;;;;;;30.02;14.53;98607.56;4996852;28;19925;-88
2022/12/23 10:20:06;;;;;;;;;;;;;;;29.85;14.54;98610.28;4996938;28;19918;-87
2022/12/23 10:22:33;;;;;;;;;;;;;;;29.49;14.36;98609.66;5014388;28;19918;-88
2022/12/23 10:24:58;;;;;;;;;;;;;;;28.96;15.00;98608.19;5029923;28;19971;-87
2022/12/23 10:27:44;;;;;;;;;;;;;;;28.15;15.27;98600.91;5037049;28;20332;-88
2022/12/23 10:30:10;;;;;;;;;;;;;;;27.37;16.17;98597.41;5013239;28;20323;-86
2022/12/23 10:32:38;;;;;;;;;;;;;;;26.73;17.22;98607.78;5013305;28;20003;-87
2022/12/23 10:35:03;;;;;;;;;;;;;;;26.16;17.67;98593.53;5014044;28;19960;-86
2022/12/23 10:37:43;;;;;;;;;;;;;;;25.64;18.33;98592.97;5013266;28;20373;-87
2022/12/23 10:40:17;;;;;;;;;;;;;;;24.98;18.73;98586.22;5003205;28;19976;-88
2022/12/23 10:42:45;;;;;;;;;;;;;;;24.39;19.12;98587.03;5011576;28;19921;-87
2022/12/23 10:45:22;;;;;;;;;;;;;;;23.96;19.86;98589.41;5015839;28;19918;-86
2022/12/23 10:47:50;;;;;;;;;;;;;;;23.52;20.39;98588.97;4998577;28;19917;-86
2022/12/23 10:50:28;;;;;;;;;;;;;;;23.21;21.04;98582.38;4997877;28;19924;-80
2022/12/23 10:52:54;;;;;;;;;;;;;;;22.78;21.21;98588.00;4980217;28;19971;-86
2022/12/23 10:55:30;;;;;;;;;;;;;;;22.53;21.57;98583.22;4996622;28;19997;-85
2022/12/23 10:57:56;;;;;;;;;;;;;;;22.21;22.16;98580.13;4977710;28;19921;-87
2022/12/23 11:00:22;;;;;;;;;;;;;;;21.99;22.31;98586.53;5005710;28;20004;-89
2022/12/23 11:03:00;;;;;;;;;;;;;;;21.71;22.50;98576.72;5036309;28;19916;-87
2022/12/23 11:05:26;;;;;;;;;;;;;;;21.46;22.97;98577.13;5038123;28;19952;-86
2022/12/23 11:07:51;;;;;;;;;;;;;;;21.21;23.15;98579.34;5035362;28;19959;-86
2022/12/23 11:10:18;;;;;;;;;;;;;;;21.03;23.54;98577.13;5019787;28;19970;-85
2022/12/23 11:12:45;;;;;;;;;;;;;;;20.80;23.68;98576.47;5037101;28;19952;-79
2022/12/23 11:15:30;;;;;;;;;;;;;;;20.59;24.19;98581.50;5036072;28;19921;-87
2022/12/23 11:18:01;;;;;;;;;;;;;;;20.38;24.37;98579.63;5018782;28;19924;-79
2022/12/23 11:20:27;;;;;;;;;;;;;;;20.20;24.89;98577.31;5055207;28;19917;-83
2022/12/23 11:22:53;;;;;;;;;;;;;;;20.02;25.05;98582.16;5036931;28;19924;-89
2022/12/23 11:25:18;;;;;;;;;;;;;;;19.78;25.47;98578.78;5037645;28;19967;-87
2022/12/23 11:27:44;;;;;;;;;;;;;;;19.60;25.59;98576.41;5037413;28;19980;-89
2022/12/23 11:30:16;;;;;;;;;;;;;;;19.39;26.03;98579.72;5036084;28;19917;-87
2022/12/23 11:32:41;;;;;;;;;;;;;;;19.24;26.37;98577.00;5038007;28;19940;-86
2022/12/23 11:35:15;;;;;;;;;;;;;;;19.04;26.78;98575.81;5053878;28;20392;-87
2022/12/23 11:37:41;;;;;;;;;;;;;;;18.81;27.10;98574.78;5038297;28;19920;-86
2022/12/23 11:40:13;;;;;;;;;;;;;;;18.65;27.37;98576.69;5035565;28;19974;-86
2022/12/23 11:42:39;;;;;;;;;;;;;;;18.50;27.75;98566.84;5019278;28;19917;-86
2022/12/23 11:45:04;;;;;;;;;;;;;;;18.35;28.06;98568.56;5053423;28;19921;-87
2022/12/23 11:47:33;;;;;;;;;;;;;;;18.20;28.56;98565.78;5018417;28;19917;-86
2022/12/23 11:49:59;;;;;;;;;;;;;;;18.08;28.82;98560.06;5052778;28;19917;-85
2022/12/23 11:52:26;;;;;;;;;;;;;;;17.99;29.14;98553.16;5036981;28;19921;-88
2022/12/23 11:54:53;;;;;;;;;;;;;;;17.82;29.11;98552.31;5036955;28;19920;-86
2022/12/23 11:57:20;;;;;;;;;;;;;;;17.61;29.77;98555.50;5036445;28;20011;-88
2022/12/23 11:59:49;;;;;;;;;;;;;;;17.57;29.72;98555.03;5035921;28;19917;-85
2022/12/23 12:02:14;;;;;;;;;;;;;;;17.38;30.12;98550.91;5020299;28;20403;-87
2022/12/23 12:04:39;;;;;;;;;;;;;;;17.26;30.45;98546.94;5035614;28;19943;-85
2022/12/23 12:07:04;;;;;;;;;;;;;;;17.13;30.71;98539.53;5035214;28;19917;-86
2022/12/23 12:09:30;;;;;;;;;;;;;;;16.91;30.91;98541.78;5035692;28;19917;-84
2022/12/23 12:11:57;;;;;;;;;;;;;;;16.69;31.36;98543.19;5020347;28;20347;-85
2022/12/23 12:14:33;;;;;;;;;;;;;;;16.61;31.54;98549.25;5052263;28;19928;-87
2022/12/23 12:17:01;;;;;;;;;;;;;;;16.43;31.84;98549.38;5034967;28;19917;-85
2022/12/23 12:19:30;;;;;;;;;;;;;;;16.32;32.14;98543.56;5055417;28;19917;-83
2022/12/23 12:21:58;;;;;;;;;;;;;;;16.21;32.23;98553.41;5036282;28;19920;-84
2022/12/23 12:24:25;;;;;;;;;;;;;;;16.08;32.44;98553.84;5036420;28;20019;-87
2022/12/23 12:26:51;;;;;;;;;;;;;;;15.92;33.05;98556.38;5019346;28;19921;-82
2022/12/23 12:29:39;;;;;;;;;;;;;;;15.78;32.82;98556.94;5035308;28;19954;-85
2022/12/23 12:32:06;;;;;;;;;;;;;;;15.55;33.39;98563.50;5043906;28;20471;-84
2022/12/23 12:34:34;;;;;;;;;;;;;;;15.38;33.67;98561.72;5035282;28;19945;-80
2022/12/23 12:37:02;;;;;;;;;;;;;;;15.26;33.99;98562.94;5054402;28;19927;-85
2022/12/23 12:39:30;;;;;;;;;;;;;;;15.10;34.24;98563.59;5041935;28;19924;-81
2022/12/23 12:41:57;;;;;;;;;;;;;;;14.96;34.47;98557.91;5039497;28;19913;-91
2022/12/23 12:44:28;;;;;;;;;;;;;;;14.83;34.60;98566.16;5028838;28;19921;-90
2022/12/23 12:47:13;;;;;;;;;;;;;;;14.69;34.91;98560.56;5064761;28;20072;-91
2022/12/23 12:49:52;;;;;;;;;;;;;;;14.57;35.62;98559.94;5025453;28;19928;-81
2022/12/23 12:52:24;;;;;;;;;;;;;;;14.43;35.65;98566.50;5032871;28;20011;-92
2022/12/23 12:54:51;;;;;;;;;;;;;;;14.33;35.90;98566.53;5051105;28;19921;-89
2022/12/23 12:57:17;;;;;;;;;;;;;;;14.22;36.12;98570.16;5043326;28;19944;-90
2022/12/23 12:59:42;;;;;;;;;;;;;;;14.11;36.39;98572.97;5038058;28;19928;-87
2022/12/23 13:02:10;;;;;;;;;;;;;;;14.05;43.89;98577.00;5020552;28;19916;-84
2022/12/23 13:04:42;;;;;;;;;;;;;;;14.05;48.25;98584.06;5052474;28;19975;-88
2022/12/23 13:07:11;;;;;;;;;;;;;;;14.00;45.54;98579.22;5054903;28;19988;-82
2022/12/23 13:09:43;;;;;;;;;;;;;;;14.07;51.31;98577.69;5034235;28;20034;-77
2022/12/23 13:12:26;;;;;;;;;;;;;;;14.01;47.38;98578.28;5051337;28;20299;-84
2022/12/23 13:15:03;;;;;;;;;;;;;;;14.08;51.12;98575.91;5052027;28;19925;-81
2022/12/23 13:17:32;;;;;;;;;;;;;;;14.10;50.22;98582.66;5034487;28;19971;-79
2022/12/23 13:20:00;;;;;;;;;;;;;;;14.04;48.74;98582.38;5017250;28;19921;-82